Secaucus, New Jersey
Current Conditions -  °F | °C
As of 1:51 AM on Sunday 26 Oct 2014 (Local Time) from KTEB Reporting Station
Overcast Overcast  
Wind Chill: 59°   Ceiling: 11000
Heat Index: 59°   Visibility: 10mi
Dew Point: 48°   Wind: 7mph
Humidity: 67%   Direction: 310°NW
Pressure: 29.55"   Gusts: NA
Location:  40.79°N, 74.05°W
Report Text: KTEB 260551Z 31006KT 10SM SCT085 OVC110 15/09 A2955 RMK AO2 RAE47 SLP007 P0000 60001 T01500089 10172 20150 56007
Loading
Personal Weather Stations






























Interactive Weather Map
Tropical Storm Tracking
New forecast layout! Learn more

10-Day Weather Forecast

Advertisements
Track Severe Weather on mobile